CST,Max TemperatureF,Mean TemperatureF,Min TemperatureF,Max Dew PointF,MeanDew PointF,Min DewpointF,Max Humidity, Mean Humidity, Min Humidity, Max Sea Level PressureIn, Mean Sea Level PressureIn, Min Sea Level PressureIn, Max VisibilityMiles, Mean VisibilityMiles, Min VisibilityMiles, Max Wind SpeedMPH, Mean Wind SpeedMPH, Max Gust SpeedMPH,PrecipitationIn, CloudCover, Events, WindDirDegrees
2012-12-1,87,77,67,72,67,63,93,75,45,30.13,30.07,30.01,10,6,1,16,7,23,0.00,3,,149
2012-12-2,86,76,66,69,65,59,92,72,40,30.13,30.07,30.02,10,6,3,16,8,21,0.00,2,,139
2012-12-3,86,75,64,69,64,61,93,73,42,30.06,30.01,29.94,10,8,3,18,7,29,0.00,1,,143
2012-12-4,87,76,64,72,66,61,94,74,41,30.13,30.06,30.00,10,5,0,12,5,,0.00,2,Rain-Thunderstorm,182
2012-12-5,80,70,59,67,54,45,89,60,29,30.22,30.12,30.05,10,8,5,15,9,20,0.00,1,,360
2012-12-6,81,67,53,67,58,51,95,78,45,30.05,29.94,29.84,10,4,0,9,2,,0.00,3,Rain,148
2012-12-7,85,73,61,71,64,60,94,77,45,29.87,29.81,29.74,10,5,0,17,6,23,0.00,3,Rain,140
2012-12-8,86,76,66,71,67,64,93,76,49,29.88,29.82,29.77,7,5,0,16,7,22,0.00,1,Rain,151
2012-12-9,85,78,70,72,69,67,91,76,54,29.90,29.82,29.75,7,5,2,15,7,18,0.00,4,,157
2012-12-10,75,62,50,71,42,22,93,52,21,30.12,29.99,29.78,10,5,0,29,10,37,0.02,3,Rain,359
2012-12-11,57,51,45,33,28,21,56,40,25,30.24,30.14,30.06,10,7,4,12,6,,0.00,6,,11
2012-12-12,70,56,41,45,33,23,75,46,25,30.32,30.25,30.21,10,7,5,12,6,,0.00,0,,16
2012-12-13,72,60,49,60,52,43,79,67,54,30.24,30.19,30.12,10,7,5,17,5,24,0.00,7,,78
2012-12-14,80,74,68,69,65,60,82,72,60,30.12,30.00,29.89,10,7,4,20,10,28,0.00,6,Rain,137
2012-12-15,84,78,72,70,67,66,86,75,54,29.94,29.86,29.81,7,6,4,15,8,20,0.00,2,,170
2012-12-16,85,78,71,70,67,62,84,71,54,29.87,29.80,29.72,7,5,3,12,4,17,0.00,4,,222
2012-12-17,82,70,57,62,47,30,75,50,15,30.03,29.94,29.85,10,7,4,14,7,20,0.00,0,Rain,346
2012-12-18,88,70,51,69,58,45,88,66,36,29.97,29.89,29.79,10,7,4,18,7,25,0.00,1,,165
2012-12-19,89,82,74,70,69,66,86,71,47,29.83,29.75,29.67,7,6,3,26,15,33,0.00,4,,165
2012-12-20,73,60,47,70,22,5,89,27,10,30.50,30.26,29.79,10,5,2,31,15,41,0.00,1,,333
2012-12-21,68,52,37,42,25,4,73,36,11,30.55,30.45,30.34,7,7,5,12,6,10,0.00,0,,57
2012-12-22,75,61,47,61,52,41,81,68,51,30.34,30.22,30.10,10,7,5,21,6,33,0.00,3,,138
2012-12-23,83,70,57,62,58,53,90,65,35,30.10,30.00,29.89,10,7,5,14,8,18,0.00,0,,170
2012-12-24,82,72,61,66,62,57,89,69,47,29.96,29.84,29.70,7,7,5,16,9,24,0.00,0,,165
2012-12-25,84,71,56,66,46,19,100,47,11,30.12,29.77,29.62,10,7,5,23,13,32,0.00,0,,288
2012-12-26,57,48,39,33,24,19,69,40,26,30.31,30.19,30.11,10,6,2,15,9,21,0.00,0,,13
2012-12-27,67,53,39,50,43,32,74,62,51,30.09,29.91,29.79,7,7,5,6,3,,0.00,6,,3
2012-12-28,74,62,50,56,42,30,95,55,21,30.15,29.90,29.74,10,6,4,18,5,25,0.00,1,,339
2012-12-29,58,52,45,35,24,16,54,36,19,30.47,30.38,30.16,10,7,5,16,10,24,0.00,1,,16
2012-12-30,72,59,46,55,45,27,70,52,39,30.38,30.23,30.13,10,7,5,15,8,20,0.00,6,,102
2012-12-31,80,72,65,65,61,55,80,67,50,30.12,29.98,29.87,10,7,5,20,9,26,0.00,4,,160